sensor_id;sensor_type;location;lat;lon;timestamp;temperature;humidity
40932;DHT22;36257;46.052;12.540;2023-07-20T00:01:10;23.10;99.90
40932;DHT22;36257;46.052;12.540;2023-07-20T00:03:36;23.20;99.90
40932;DHT22;36257;46.052;12.540;2023-07-20T00:06:02;23.30;99.90
40932;DHT22;36257;46.052;12.540;2023-07-20T00:08:29;23.30;99.90
40932;DHT22;36257;46.052;12.540;2023-07-20T00:10:55;23.20;99.90
40932;DHT22;36257;46.052;12.540;2023-07-20T00:13:20;23.20;99.90
40932;DHT22;36257;46.052;12.540;2023-07-20T00:15:46;23.10;99.90
40932;DHT22;36257;46.052;12.540;2023-07-20T00:18:12;23.10;99.90
40932;DHT22;36257;46.052;12.540;2023-07-20T00:20:38;23.10;99.90
40932;DHT22;36257;46.052;12.540;2023-07-20T00:23:03;23.20;99.20
40932;DHT22;36257;46.052;12.540;2023-07-20T00:25:29;23.30;98.30
40932;DHT22;36257;46.052;12.540;2023-07-20T00:27:54;23.30;98.10
40932;DHT22;36257;46.052;12.540;2023-07-20T00:30:20;23.30;98.60
40932;DHT22;36257;46.052;12.540;2023-07-20T00:32:45;23.20;98.70
40932;DHT22;36257;46.052;12.540;2023-07-20T00:35:11;23.20;98.30
40932;DHT22;36257;46.052;12.540;2023-07-20T00:37:37;23.20;97.30
40932;DHT22;36257;46.052;12.540;2023-07-20T00:40:03;23.20;96.60
40932;DHT22;36257;46.052;12.540;2023-07-20T00:42:29;23.10;96.50
40932;DHT22;36257;46.052;12.540;2023-07-20T00:44:55;23.10;96.90
40932;DHT22;36257;46.052;12.540;2023-07-20T00:47:20;22.90;98.10
40932;DHT22;36257;46.052;12.540;2023-07-20T00:49:46;22.90;98.10
40932;DHT22;36257;46.052;12.540;2023-07-20T00:52:12;22.80;98.40
40932;DHT22;36257;46.052;12.540;2023-07-20T00:54:39;22.60;98.20
40932;DHT22;36257;46.052;12.540;2023-07-20T00:57:05;22.60;98.50
40932;DHT22;36257;46.052;12.540;2023-07-20T00:59:32;22.50;98.50
40932;DHT22;36257;46.052;12.540;2023-07-20T01:01:57;22.50;98.60
40932;DHT22;36257;46.052;12.540;2023-07-20T01:04:23;22.60;98.60
40932;DHT22;36257;46.052;12.540;2023-07-20T01:06:51;22.60;98.20
40932;DHT22;36257;46.052;12.540;2023-07-20T01:10:20;22.70;96.90
40932;DHT22;36257;46.052;12.540;2023-07-20T01:12:18;22.70;96.30
40932;DHT22;36257;46.052;12.540;2023-07-20T01:14:46;22.70;96.40
40932;DHT22;36257;46.052;12.540;2023-07-20T01:17:11;22.60;96.70
40932;DHT22;36257;46.052;12.540;2023-07-20T01:19:37;22.60;96.70
40932;DHT22;36257;46.052;12.540;2023-07-20T01:24:53;22.50;97.30
40932;DHT22;36257;46.052;12.540;2023-07-20T01:30:25;22.50;96.90
40932;DHT22;36257;46.052;12.540;2023-07-20T01:32:54;22.50;96.70
40932;DHT22;36257;46.052;12.540;2023-07-20T01:35:20;22.60;95.70
40932;DHT22;36257;46.052;12.540;2023-07-20T01:37:48;22.60;95.30
40932;DHT22;36257;46.052;12.540;2023-07-20T01:40:14;22.60;95.30
40932;DHT22;36257;46.052;12.540;2023-07-20T01:42:45;22.60;95.10
40932;DHT22;36257;46.052;12.540;2023-07-20T01:45:11;22.60;95.20
40932;DHT22;36257;46.052;12.540;2023-07-20T01:47:36;22.50;95.00
40932;DHT22;36257;46.052;12.540;2023-07-20T01:50:02;22.40;95.50
40932;DHT22;36257;46.052;12.540;2023-07-20T01:52:28;22.40;95.70
40932;DHT22;36257;46.052;12.540;2023-07-20T01:54:53;22.30;95.90
40932;DHT22;36257;46.052;12.540;2023-07-20T01:57:19;22.30;95.70
40932;DHT22;36257;46.052;12.540;2023-07-20T01:59:45;22.30;95.50
40932;DHT22;36257;46.052;12.540;2023-07-20T02:02:10;22.30;95.20
40932;DHT22;36257;46.052;12.540;2023-07-20T02:04:36;22.20;95.40
40932;DHT22;36257;46.052;12.540;2023-07-20T02:07:01;22.20;95.60
40932;DHT22;36257;46.052;12.540;2023-07-20T02:09:27;22.20;95.60
40932;DHT22;36257;46.052;12.540;2023-07-20T02:11:52;22.20;95.90
40932;DHT22;36257;46.052;12.540;2023-07-20T02:14:18;22.20;96.00
40932;DHT22;36257;46.052;12.540;2023-07-20T02:16:43;22.20;95.40
40932;DHT22;36257;46.052;12.540;2023-07-20T02:19:09;22.20;95.80
40932;DHT22;36257;46.052;12.540;2023-07-20T02:21:34;22.20;95.70
40932;DHT22;36257;46.052;12.540;2023-07-20T02:24:00;22.20;95.80
40932;DHT22;36257;46.052;12.540;2023-07-20T02:26:25;22.30;95.50
40932;DHT22;36257;46.052;12.540;2023-07-20T02:28:51;22.30;95.30
40932;DHT22;36257;46.052;12.540;2023-07-20T02:31:16;22.20;95.20
40932;DHT22;36257;46.052;12.540;2023-07-20T02:33:42;22.20;94.90
40932;DHT22;36257;46.052;12.540;2023-07-20T02:36:07;22.10;94.90
40932;DHT22;36257;46.052;12.540;2023-07-20T02:38:33;22.10;95.20
40932;DHT22;36257;46.052;12.540;2023-07-20T02:40:58;22.10;95.20
40932;DHT22;36257;46.052;12.540;2023-07-20T02:43:24;22.00;95.20
40932;DHT22;36257;46.052;12.540;2023-07-20T02:45:50;22.00;95.30
40932;DHT22;36257;46.052;12.540;2023-07-20T02:48:15;22.10;94.90
40932;DHT22;36257;46.052;12.540;2023-07-20T02:50:41;22.10;95.00
40932;DHT22;36257;46.052;12.540;2023-07-20T02:53:06;22.10;94.90
40932;DHT22;36257;46.052;12.540;2023-07-20T02:55:32;22.10;94.70
40932;DHT22;36257;46.052;12.540;2023-07-20T02:57:57;22.20;95.00
40932;DHT22;36257;46.052;12.540;2023-07-20T03:00:23;22.20;95.40
40932;DHT22;36257;46.052;12.540;2023-07-20T03:02:48;22.20;96.10
40932;DHT22;36257;46.052;12.540;2023-07-20T03:05:14;22.20;95.30
40932;DHT22;36257;46.052;12.540;2023-07-20T03:07:40;22.20;94.70
40932;DHT22;36257;46.052;12.540;2023-07-20T03:10:07;22.20;94.20
40932;DHT22;36257;46.052;12.540;2023-07-20T03:12:34;22.20;94.40
40932;DHT22;36257;46.052;12.540;2023-07-20T03:15:00;22.20;94.10
40932;DHT22;36257;46.052;12.540;2023-07-20T03:17:25;22.10;94.40
40932;DHT22;36257;46.052;12.540;2023-07-20T03:19:51;22.10;94.70
40932;DHT22;36257;46.052;12.540;2023-07-20T03:22:16;22.10;94.40
40932;DHT22;36257;46.052;12.540;2023-07-20T03:24:42;22.10;94.10
40932;DHT22;36257;46.052;12.540;2023-07-20T03:27:07;22.10;93.80
40932;DHT22;36257;46.052;12.540;2023-07-20T03:29:33;22.10;93.40
40932;DHT22;36257;46.052;12.540;2023-07-20T03:31:58;22.20;93.40
40932;DHT22;36257;46.052;12.540;2023-07-20T03:34:24;22.20;93.60
40932;DHT22;36257;46.052;12.540;2023-07-20T03:36:50;22.10;93.90
40932;DHT22;36257;46.052;12.540;2023-07-20T03:39:15;22.10;93.40
40932;DHT22;36257;46.052;12.540;2023-07-20T03:41:41;22.10;93.10
40932;DHT22;36257;46.052;12.540;2023-07-20T03:44:06;22.10;93.30
40932;DHT22;36257;46.052;12.540;2023-07-20T03:46:32;22.10;93.40
40932;DHT22;36257;46.052;12.540;2023-07-20T03:48:59;22.10;93.30
40932;DHT22;36257;46.052;12.540;2023-07-20T03:51:25;22.10;93.40
40932;DHT22;36257;46.052;12.540;2023-07-20T03:53:51;22.20;93.40
40932;DHT22;36257;46.052;12.540;2023-07-20T03:56:16;22.20;93.10
40932;DHT22;36257;46.052;12.540;2023-07-20T03:58:42;22.10;93.40
40932;DHT22;36257;46.052;12.540;2023-07-20T04:01:07;22.10;93.60
40932;DHT22;36257;46.052;12.540;2023-07-20T04:03:33;22.00;94.10
40932;DHT22;36257;46.052;12.540;2023-07-20T04:05:58;22.00;94.90
40932;DHT22;36257;46.052;12.540;2023-07-20T04:08:24;22.00;94.40
40932;DHT22;36257;46.052;12.540;2023-07-20T04:10:50;22.00;94.40
40932;DHT22;36257;46.052;12.540;2023-07-20T04:13:15;22.00;94.50
40932;DHT22;36257;46.052;12.540;2023-07-20T04:15:42;22.00;94.70
40932;DHT22;36257;46.052;12.540;2023-07-20T04:18:07;22.00;94.90
40932;DHT22;36257;46.052;12.540;2023-07-20T04:20:33;22.00;95.30
40932;DHT22;36257;46.052;12.540;2023-07-20T04:22:58;22.00;95.50
40932;DHT22;36257;46.052;12.540;2023-07-20T04:25:24;22.10;96.00
40932;DHT22;36257;46.052;12.540;2023-07-20T04:27:49;22.10;96.00
40932;DHT22;36257;46.052;12.540;2023-07-20T04:30:17;22.20;95.40
40932;DHT22;36257;46.052;12.540;2023-07-20T04:32:45;22.30;95.70
40932;DHT22;36257;46.052;12.540;2023-07-20T04:35:16;22.40;95.10
40932;DHT22;36257;46.052;12.540;2023-07-20T04:37:42;22.40;94.60
40932;DHT22;36257;46.052;12.540;2023-07-20T04:40:12;22.50;94.40
40932;DHT22;36257;46.052;12.540;2023-07-20T04:42:37;22.60;94.20
40932;DHT22;36257;46.052;12.540;2023-07-20T04:45:03;22.60;94.20
40932;DHT22;36257;46.052;12.540;2023-07-20T04:47:28;22.70;94.70
40932;DHT22;36257;46.052;12.540;2023-07-20T04:49:54;22.70;95.00
40932;DHT22;36257;46.052;12.540;2023-07-20T04:52:19;22.80;95.10
40932;DHT22;36257;46.052;12.540;2023-07-20T04:54:45;22.90;95.30
40932;DHT22;36257;46.052;12.540;2023-07-20T04:57:11;22.90;94.70
40932;DHT22;36257;46.052;12.540;2023-07-20T04:59:37;22.90;94.10
40932;DHT22;36257;46.052;12.540;2023-07-20T05:02:02;22.90;94.00
40932;DHT22;36257;46.052;12.540;2023-07-20T05:04:28;22.90;93.60
40932;DHT22;36257;46.052;12.540;2023-07-20T05:06:53;23.00;93.90
40932;DHT22;36257;46.052;12.540;2023-07-20T05:09:19;23.00;94.30
40932;DHT22;36257;46.052;12.540;2023-07-20T05:11:44;23.00;95.20
40932;DHT22;36257;46.052;12.540;2023-07-20T05:14:10;23.00;95.40
40932;DHT22;36257;46.052;12.540;2023-07-20T05:16:36;23.00;95.20
40932;DHT22;36257;46.052;12.540;2023-07-20T05:19:02;23.10;95.10
40932;DHT22;36257;46.052;12.540;2023-07-20T05:21:27;23.20;94.80
40932;DHT22;36257;46.052;12.540;2023-07-20T05:23:53;23.30;95.10
40932;DHT22;36257;46.052;12.540;2023-07-20T05:26:18;23.40;94.70
40932;DHT22;36257;46.052;12.540;2023-07-20T05:28:44;23.60;95.00
40932;DHT22;36257;46.052;12.540;2023-07-20T05:31:09;23.70;94.20
40932;DHT22;36257;46.052;12.540;2023-07-20T05:33:35;23.80;95.70
40932;DHT22;36257;46.052;12.540;2023-07-20T05:36:00;23.90;95.70
40932;DHT22;36257;46.052;12.540;2023-07-20T05:38:26;24.00;95.70
40932;DHT22;36257;46.052;12.540;2023-07-20T05:40:51;24.00;95.50
40932;DHT22;36257;46.052;12.540;2023-07-20T05:43:17;24.10;96.40
40932;DHT22;36257;46.052;12.540;2023-07-20T05:45:43;24.30;96.20
40932;DHT22;36257;46.052;12.540;2023-07-20T05:48:10;24.40;95.90
40932;DHT22;36257;46.052;12.540;2023-07-20T05:50:37;24.40;96.20
40932;DHT22;36257;46.052;12.540;2023-07-20T05:53:02;24.50;96.70
40932;DHT22;36257;46.052;12.540;2023-07-20T05:55:28;24.50;95.60
40932;DHT22;36257;46.052;12.540;2023-07-20T05:57:53;24.60;95.40
40932;DHT22;36257;46.052;12.540;2023-07-20T06:00:21;24.70;94.30
40932;DHT22;36257;46.052;12.540;2023-07-20T06:02:52;24.80;93.50
40932;DHT22;36257;46.052;12.540;2023-07-20T06:05:18;24.80;90.90
40932;DHT22;36257;46.052;12.540;2023-07-20T06:07:44;24.90;90.50
40932;DHT22;36257;46.052;12.540;2023-07-20T06:36:03;26.00;89.20
40932;DHT22;36257;46.052;12.540;2023-07-20T06:38:29;26.40;88.40
40932;DHT22;36257;46.052;12.540;2023-07-20T06:40:54;26.60;86.90
40932;DHT22;36257;46.052;12.540;2023-07-20T06:43:20;26.90;87.00
40932;DHT22;36257;46.052;12.540;2023-07-20T06:45:50;27.20;87.50
40932;DHT22;36257;46.052;12.540;2023-07-20T06:48:16;27.50;86.40
40932;DHT22;36257;46.052;12.540;2023-07-20T06:50:42;27.60;85.30
40932;DHT22;36257;46.052;12.540;2023-07-20T06:53:08;27.60;85.60
40932;DHT22;36257;46.052;12.540;2023-07-20T06:55:33;27.60;87.50
40932;DHT22;36257;46.052;12.540;2023-07-20T06:57:59;27.80;88.10
40932;DHT22;36257;46.052;12.540;2023-07-20T07:00:24;27.90;87.60
40932;DHT22;36257;46.052;12.540;2023-07-20T07:02:50;28.00;88.00
40932;DHT22;36257;46.052;12.540;2023-07-20T07:05:15;28.00;85.90
40932;DHT22;36257;46.052;12.540;2023-07-20T07:07:41;28.20;85.30
40932;DHT22;36257;46.052;12.540;2023-07-20T07:10:07;28.30;83.20
40932;DHT22;36257;46.052;12.540;2023-07-20T07:12:33;28.50;83.20
40932;DHT22;36257;46.052;12.540;2023-07-20T07:15:01;28.90;83.40
40932;DHT22;36257;46.052;12.540;2023-07-20T07:17:26;29.20;83.70
40932;DHT22;36257;46.052;12.540;2023-07-20T07:19:52;29.40;83.10
40932;DHT22;36257;46.052;12.540;2023-07-20T07:22:20;29.60;78.50
40932;DHT22;36257;46.052;12.540;2023-07-20T07:24:46;29.70;74.80
40932;DHT22;36257;46.052;12.540;2023-07-20T07:27:12;29.90;75.00
40932;DHT22;36257;46.052;12.540;2023-07-20T07:29:37;30.20;74.30
40932;DHT22;36257;46.052;12.540;2023-07-20T07:32:03;30.60;74.60
40932;DHT22;36257;46.052;12.540;2023-07-20T07:34:29;30.90;70.40
40932;DHT22;36257;46.052;12.540;2023-07-20T07:36:54;31.10;72.40
40932;DHT22;36257;46.052;12.540;2023-07-20T07:39:20;31.20;69.80
40932;DHT22;36257;46.052;12.540;2023-07-20T07:41:45;31.10;68.80
40932;DHT22;36257;46.052;12.540;2023-07-20T07:44:11;31.10;66.80
40932;DHT22;36257;46.052;12.540;2023-07-20T07:46:37;31.10;66.70
40932;DHT22;36257;46.052;12.540;2023-07-20T07:49:02;31.20;68.50
40932;DHT22;36257;46.052;12.540;2023-07-20T07:51:28;31.30;66.20
40932;DHT22;36257;46.052;12.540;2023-07-20T07:53:53;31.50;66.10
40932;DHT22;36257;46.052;12.540;2023-07-20T07:56:19;31.70;62.80
40932;DHT22;36257;46.052;12.540;2023-07-20T07:58:51;31.90;63.40
40932;DHT22;36257;46.052;12.540;2023-07-20T08:01:19;32.10;62.90
40932;DHT22;36257;46.052;12.540;2023-07-20T08:03:45;32.30;61.80
40932;DHT22;36257;46.052;12.540;2023-07-20T08:06:15;32.30;62.20
40932;DHT22;36257;46.052;12.540;2023-07-20T08:08:40;32.40;64.10
40932;DHT22;36257;46.052;12.540;2023-07-20T08:11:06;32.20;64.90
40932;DHT22;36257;46.052;12.540;2023-07-20T08:13:31;32.00;64.40
40932;DHT22;36257;46.052;12.540;2023-07-20T08:15:57;31.80;66.40
40932;DHT22;36257;46.052;12.540;2023-07-20T08:18:23;31.80;65.20
40932;DHT22;36257;46.052;12.540;2023-07-20T08:20:49;31.90;66.60
40932;DHT22;36257;46.052;12.540;2023-07-20T08:23:14;32.00;67.50
40932;DHT22;36257;46.052;12.540;2023-07-20T08:25:40;32.20;66.20
40932;DHT22;36257;46.052;12.540;2023-07-20T08:28:17;32.40;65.70
40932;DHT22;36257;46.052;12.540;2023-07-20T08:30:44;32.70;61.90
40932;DHT22;36257;46.052;12.540;2023-07-20T08:33:10;32.80;65.10
40932;DHT22;36257;46.052;12.540;2023-07-20T08:35:36;33.00;63.50
40932;DHT22;36257;46.052;12.540;2023-07-20T08:38:01;33.10;61.20
40932;DHT22;36257;46.052;12.540;2023-07-20T08:40:27;33.20;62.10
40932;DHT22;36257;46.052;12.540;2023-07-20T08:42:54;33.20;63.90
40932;DHT22;36257;46.052;12.540;2023-07-20T08:45:20;33.20;65.90
40932;DHT22;36257;46.052;12.540;2023-07-20T08:47:47;33.20;64.50
40932;DHT22;36257;46.052;12.540;2023-07-20T08:50:14;33.20;67.00
40932;DHT22;36257;46.052;12.540;2023-07-20T08:52:40;33.20;64.70
40932;DHT22;36257;46.052;12.540;2023-07-20T08:55:05;33.40;66.10
40932;DHT22;36257;46.052;12.540;2023-07-20T08:57:32;33.50;63.90
40932;DHT22;36257;46.052;12.540;2023-07-20T08:59:58;33.80;60.60
40932;DHT22;36257;46.052;12.540;2023-07-20T09:02:25;34.00;60.70
40932;DHT22;36257;46.052;12.540;2023-07-20T09:04:51;34.00;59.60
40932;DHT22;36257;46.052;12.540;2023-07-20T09:07:17;34.10;58.00
40932;DHT22;36257;46.052;12.540;2023-07-20T09:09:43;34.20;59.40
40932;DHT22;36257;46.052;12.540;2023-07-20T09:12:14;34.20;57.60
40932;DHT22;36257;46.052;12.540;2023-07-20T09:14:44;34.40;65.10
40932;DHT22;36257;46.052;12.540;2023-07-20T09:17:13;34.70;58.70
40932;DHT22;36257;46.052;12.540;2023-07-20T09:19:45;34.90;61.90
40932;DHT22;36257;46.052;12.540;2023-07-20T09:22:11;35.20;58.80
40932;DHT22;36257;46.052;12.540;2023-07-20T09:24:36;35.10;55.90
40932;DHT22;36257;46.052;12.540;2023-07-20T09:27:02;35.30;56.30
40932;DHT22;36257;46.052;12.540;2023-07-20T09:29:30;35.30;55.80
40932;DHT22;36257;46.052;12.540;2023-07-20T09:32:02;35.30;56.60
40932;DHT22;36257;46.052;12.540;2023-07-20T09:34:29;35.40;57.40
40932;DHT22;36257;46.052;12.540;2023-07-20T09:36:55;35.50;58.20
40932;DHT22;36257;46.052;12.540;2023-07-20T09:39:21;35.50;56.70
40932;DHT22;36257;46.052;12.540;2023-07-20T09:41:46;35.60;57.60
40932;DHT22;36257;46.052;12.540;2023-07-20T09:44:13;35.40;58.20
40932;DHT22;36257;46.052;12.540;2023-07-20T09:46:46;35.50;56.30
40932;DHT22;36257;46.052;12.540;2023-07-20T09:49:11;35.30;53.60
40932;DHT22;36257;46.052;12.540;2023-07-20T10:04:34;35.80;55.70
40932;DHT22;36257;46.052;12.540;2023-07-20T10:32:54;35.90;55.40
40932;DHT22;36257;46.052;12.540;2023-07-20T10:35:20;36.10;52.00
40932;DHT22;36257;46.052;12.540;2023-07-20T10:37:52;36.30;54.10
40932;DHT22;36257;46.052;12.540;2023-07-20T10:40:36;36.60;52.70
40932;DHT22;36257;46.052;12.540;2023-07-20T10:43:04;36.60;53.00
40932;DHT22;36257;46.052;12.540;2023-07-20T10:45:36;36.80;51.10
40932;DHT22;36257;46.052;12.540;2023-07-20T10:48:05;36.80;51.90
40932;DHT22;36257;46.052;12.540;2023-07-20T10:50:35;36.60;50.60
40932;DHT22;36257;46.052;12.540;2023-07-20T10:53:04;36.70;51.40
40932;DHT22;36257;46.052;12.540;2023-07-20T10:55:35;36.50;54.50
40932;DHT22;36257;46.052;12.540;2023-07-20T10:58:33;36.70;52.30
40932;DHT22;36257;46.052;12.540;2023-07-20T11:00:55;36.70;51.60
40932;DHT22;36257;46.052;12.540;2023-07-20T11:03:28;36.80;53.20
40932;DHT22;36257;46.052;12.540;2023-07-20T11:05:55;36.80;50.10
40932;DHT22;36257;46.052;12.540;2023-07-20T11:08:37;36.70;50.60
40932;DHT22;36257;46.052;12.540;2023-07-20T11:13:54;36.60;52.10
40932;DHT22;36257;46.052;12.540;2023-07-20T11:16:32;36.70;51.00
40932;DHT22;36257;46.052;12.540;2023-07-20T11:18:58;36.80;50.90
40932;DHT22;36257;46.052;12.540;2023-07-20T11:21:24;36.80;51.80
40932;DHT22;36257;46.052;12.540;2023-07-20T11:23:50;36.70;52.50
40932;DHT22;36257;46.052;12.540;2023-07-20T11:26:17;36.80;52.60
40932;DHT22;36257;46.052;12.540;2023-07-20T11:28:43;36.90;52.50
40932;DHT22;36257;46.052;12.540;2023-07-20T11:31:09;37.00;53.10
40932;DHT22;36257;46.052;12.540;2023-07-20T11:33:34;37.10;51.30
40932;DHT22;36257;46.052;12.540;2023-07-20T11:36:00;37.10;53.30
40932;DHT22;36257;46.052;12.540;2023-07-20T11:38:25;37.20;49.90
40932;DHT22;36257;46.052;12.540;2023-07-20T11:40:51;37.20;52.50
40932;DHT22;36257;46.052;12.540;2023-07-20T11:43:16;37.30;52.60
40932;DHT22;36257;46.052;12.540;2023-07-20T11:45:43;37.30;52.80
40932;DHT22;36257;46.052;12.540;2023-07-20T11:48:14;37.40;50.80
40932;DHT22;36257;46.052;12.540;2023-07-20T11:50:39;37.30;52.20
40932;DHT22;36257;46.052;12.540;2023-07-20T11:53:05;36.80;51.50
40932;DHT22;36257;46.052;12.540;2023-07-20T12:00:43;36.50;54.90
40932;DHT22;36257;46.052;12.540;2023-07-20T12:03:09;36.50;54.80
40932;DHT22;36257;46.052;12.540;2023-07-20T12:05:36;36.70;54.50
40932;DHT22;36257;46.052;12.540;2023-07-20T12:08:01;36.90;53.10
40932;DHT22;36257;46.052;12.540;2023-07-20T12:10:28;37.00;53.00
40932;DHT22;36257;46.052;12.540;2023-07-20T12:12:54;36.80;53.80
40932;DHT22;36257;46.052;12.540;2023-07-20T12:23:00;36.30;53.80
40932;DHT22;36257;46.052;12.540;2023-07-20T12:25:32;36.40;54.30
40932;DHT22;36257;46.052;12.540;2023-07-20T12:28:00;36.60;53.00
40932;DHT22;36257;46.052;12.540;2023-07-20T12:30:26;36.70;52.70
40932;DHT22;36257;46.052;12.540;2023-07-20T12:32:51;36.70;54.30
40932;DHT22;36257;46.052;12.540;2023-07-20T12:35:17;36.50;52.90
40932;DHT22;36257;46.052;12.540;2023-07-20T12:37:42;36.40;54.10
40932;DHT22;36257;46.052;12.540;2023-07-20T12:40:08;36.50;54.60
40932;DHT22;36257;46.052;12.540;2023-07-20T12:42:36;36.50;55.50
40932;DHT22;36257;46.052;12.540;2023-07-20T12:45:01;36.60;55.00
40932;DHT22;36257;46.052;12.540;2023-07-20T12:47:27;36.80;53.10
40932;DHT22;36257;46.052;12.540;2023-07-20T12:49:52;36.90;52.80
40932;DHT22;36257;46.052;12.540;2023-07-20T12:52:18;36.80;53.40
40932;DHT22;36257;46.052;12.540;2023-07-20T12:54:43;36.70;53.90
40932;DHT22;36257;46.052;12.540;2023-07-20T12:57:09;36.70;53.70
40932;DHT22;36257;46.052;12.540;2023-07-20T12:59:34;36.80;53.50
40932;DHT22;36257;46.052;12.540;2023-07-20T13:02:00;37.00;55.50
40932;DHT22;36257;46.052;12.540;2023-07-20T13:04:25;37.10;53.80
40932;DHT22;36257;46.052;12.540;2023-07-20T13:06:51;37.00;53.90
40932;DHT22;36257;46.052;12.540;2023-07-20T13:09:16;37.00;55.40
40932;DHT22;36257;46.052;12.540;2023-07-20T13:11:42;36.90;52.50
40932;DHT22;36257;46.052;12.540;2023-07-20T13:14:08;36.80;53.10
40932;DHT22;36257;46.052;12.540;2023-07-20T13:16:34;36.80;52.70
40932;DHT22;36257;46.052;12.540;2023-07-20T13:19:00;36.80;53.70
40932;DHT22;36257;46.052;12.540;2023-07-20T13:21:26;36.70;54.60
40932;DHT22;36257;46.052;12.540;2023-07-20T13:23:51;36.50;55.40
40932;DHT22;36257;46.052;12.540;2023-07-20T13:26:17;36.50;55.80
40932;DHT22;36257;46.052;12.540;2023-07-20T13:28:42;36.50;56.20
40932;DHT22;36257;46.052;12.540;2023-07-20T13:31:08;36.40;56.50
40932;DHT22;36257;46.052;12.540;2023-07-20T13:33:37;36.50;56.10
40932;DHT22;36257;46.052;12.540;2023-07-20T13:36:03;36.50;54.80
40932;DHT22;36257;46.052;12.540;2023-07-20T13:38:31;36.50;55.10
40932;DHT22;36257;46.052;12.540;2023-07-20T13:40:56;36.60;54.20
40932;DHT22;36257;46.052;12.540;2023-07-20T13:43:22;36.60;55.00
40932;DHT22;36257;46.052;12.540;2023-07-20T13:45:48;36.70;55.20
40932;DHT22;36257;46.052;12.540;2023-07-20T13:48:13;36.60;55.00
40932;DHT22;36257;46.052;12.540;2023-07-20T13:50:39;36.50;54.90
40932;DHT22;36257;46.052;12.540;2023-07-20T13:53:05;36.50;55.70
40932;DHT22;36257;46.052;12.540;2023-07-20T13:55:30;36.40;55.50
40932;DHT22;36257;46.052;12.540;2023-07-20T13:57:59;36.10;55.70
40932;DHT22;36257;46.052;12.540;2023-07-20T14:00:24;36.00;56.60
40932;DHT22;36257;46.052;12.540;2023-07-20T14:02:53;36.00;55.10
40932;DHT22;36257;46.052;12.540;2023-07-20T14:05:18;35.90;56.60
40932;DHT22;36257;46.052;12.540;2023-07-20T14:07:44;36.00;57.40
40932;DHT22;36257;46.052;12.540;2023-07-20T14:10:10;36.00;56.60
40932;DHT22;36257;46.052;12.540;2023-07-20T14:12:35;36.10;55.30
40932;DHT22;36257;46.052;12.540;2023-07-20T14:15:01;36.10;56.00
40932;DHT22;36257;46.052;12.540;2023-07-20T14:17:26;36.10;56.70
40932;DHT22;36257;46.052;12.540;2023-07-20T14:19:53;35.90;57.20
40932;DHT22;36257;46.052;12.540;2023-07-20T14:22:18;35.90;57.40
40932;DHT22;36257;46.052;12.540;2023-07-20T14:24:44;35.90;57.10
40932;DHT22;36257;46.052;12.540;2023-07-20T14:27:09;35.90;58.40
40932;DHT22;36257;46.052;12.540;2023-07-20T14:29:36;35.90;57.20
40932;DHT22;36257;46.052;12.540;2023-07-20T14:32:01;35.70;58.00
40932;DHT22;36257;46.052;12.540;2023-07-20T14:34:28;35.70;57.50
40932;DHT22;36257;46.052;12.540;2023-07-20T14:36:54;35.60;58.50
40932;DHT22;36257;46.052;12.540;2023-07-20T14:39:20;35.70;57.00
40932;DHT22;36257;46.052;12.540;2023-07-20T14:41:45;35.70;57.40
40932;DHT22;36257;46.052;12.540;2023-07-20T14:44:11;35.60;57.20
40932;DHT22;36257;46.052;12.540;2023-07-20T14:46:36;35.50;57.00
40932;DHT22;36257;46.052;12.540;2023-07-20T14:49:02;35.40;57.30
40932;DHT22;36257;46.052;12.540;2023-07-20T14:51:28;35.20;58.20
40932;DHT22;36257;46.052;12.540;2023-07-20T14:53:58;35.10;58.60
40932;DHT22;36257;46.052;12.540;2023-07-20T14:56:24;34.90;58.50
40932;DHT22;36257;46.052;12.540;2023-07-20T14:58:49;34.80;58.80
40932;DHT22;36257;46.052;12.540;2023-07-20T15:01:15;34.80;57.60
40932;DHT22;36257;46.052;12.540;2023-07-20T15:30:15;34.10;58.70
40932;DHT22;36257;46.052;12.540;2023-07-20T15:32:41;34.10;58.90
40932;DHT22;36257;46.052;12.540;2023-07-20T15:35:09;34.00;59.50
40932;DHT22;36257;46.052;12.540;2023-07-20T15:40:10;33.90;59.70
40932;DHT22;36257;46.052;12.540;2023-07-20T15:42:35;33.80;59.60
40932;DHT22;36257;46.052;12.540;2023-07-20T15:45:01;33.70;60.30
40932;DHT22;36257;46.052;12.540;2023-07-20T15:47:27;33.60;60.80
40932;DHT22;36257;46.052;12.540;2023-07-20T15:49:52;33.50;61.00
40932;DHT22;36257;46.052;12.540;2023-07-20T15:52:18;33.50;60.40
40932;DHT22;36257;46.052;12.540;2023-07-20T15:54:43;33.40;60.50
40932;DHT22;36257;46.052;12.540;2023-07-20T15:57:09;33.30;60.30
40932;DHT22;36257;46.052;12.540;2023-07-20T15:59:34;33.30;60.50
40932;DHT22;36257;46.052;12.540;2023-07-20T16:02:00;33.40;61.40
40932;DHT22;36257;46.052;12.540;2023-07-20T16:04:26;33.40;60.90
40932;DHT22;36257;46.052;12.540;2023-07-20T16:06:51;33.30;60.80
40932;DHT22;36257;46.052;12.540;2023-07-20T16:09:17;33.10;61.40
40932;DHT22;36257;46.052;12.540;2023-07-20T16:11:42;33.10;61.00
40932;DHT22;36257;46.052;12.540;2023-07-20T16:14:08;33.00;61.00
40932;DHT22;36257;46.052;12.540;2023-07-20T16:16:34;32.80;61.20
40932;DHT22;36257;46.052;12.540;2023-07-20T16:19:00;32.70;62.60
40932;DHT22;36257;46.052;12.540;2023-07-20T16:21:26;32.60;62.40
40932;DHT22;36257;46.052;12.540;2023-07-20T16:23:51;32.50;63.10
40932;DHT22;36257;46.052;12.540;2023-07-20T16:26:17;32.40;63.10
40932;DHT22;36257;46.052;12.540;2023-07-20T16:28:42;32.40;62.90
40932;DHT22;36257;46.052;12.540;2023-07-20T16:31:13;32.40;63.60
40932;DHT22;36257;46.052;12.540;2023-07-20T16:33:41;32.30;63.90
40932;DHT22;36257;46.052;12.540;2023-07-20T16:36:10;32.30;63.40
40932;DHT22;36257;46.052;12.540;2023-07-20T16:38:39;32.20;63.00
40932;DHT22;36257;46.052;12.540;2023-07-20T16:41:05;32.20;63.20
40932;DHT22;36257;46.052;12.540;2023-07-20T16:43:32;32.10;63.70
40932;DHT22;36257;46.052;12.540;2023-07-20T16:45:59;32.10;64.60
40932;DHT22;36257;46.052;12.540;2023-07-20T16:48:25;32.00;64.50
40932;DHT22;36257;46.052;12.540;2023-07-20T16:50:50;32.00;65.50
40932;DHT22;36257;46.052;12.540;2023-07-20T16:53:16;32.20;64.90
40932;DHT22;36257;46.052;12.540;2023-07-20T16:55:41;32.20;66.40
40932;DHT22;36257;46.052;12.540;2023-07-20T16:58:07;32.20;66.90
40932;DHT22;36257;46.052;12.540;2023-07-20T17:00:33;32.10;67.70
40932;DHT22;36257;46.052;12.540;2023-07-20T17:02:59;32.10;67.70
40932;DHT22;36257;46.052;12.540;2023-07-20T17:05:24;32.10;67.20